sensor_id;sensor_type;location;lat;lon;timestamp;P1;durP1;ratioP1;P2;durP2;ratioP2
5285;SDS011;2665;53.112;7.358;2023-10-09T00:00:24;2.83;;;1.40;;
5285;SDS011;2665;53.112;7.358;2023-10-09T00:02:56;5.10;;;1.57;;
5285;SDS011;2665;53.112;7.358;2023-10-09T00:05:26;3.50;;;1.57;;
5285;SDS011;2665;53.112;7.358;2023-10-09T00:08:04;3.80;;;1.40;;
5285;SDS011;2665;53.112;7.358;2023-10-09T00:10:30;5.43;;;1.27;;
5285;SDS011;2665;53.112;7.358;2023-10-09T00:13:14;6.27;;;1.60;;
5285;SDS011;2665;53.112;7.358;2023-10-09T00:15:40;8.23;;;1.20;;
5285;SDS011;2665;53.112;7.358;2023-10-09T00:18:08;3.60;;;1.47;;
5285;SDS011;2665;53.112;7.358;2023-10-09T00:20:37;4.10;;;1.43;;
5285;SDS011;2665;53.112;7.358;2023-10-09T00:23:07;4.83;;;1.37;;
5285;SDS011;2665;53.112;7.358;2023-10-09T00:25:40;2.43;;;1.47;;
5285;SDS011;2665;53.112;7.358;2023-10-09T00:28:27;2.50;;;1.20;;
5285;SDS011;2665;53.112;7.358;2023-10-09T00:30:53;4.03;;;0.97;;
5285;SDS011;2665;53.112;7.358;2023-10-09T00:33:19;7.17;;;1.10;;
5285;SDS011;2665;53.112;7.358;2023-10-09T00:35:47;3.03;;;1.23;;
5285;SDS011;2665;53.112;7.358;2023-10-09T00:38:19;4.33;;;1.60;;
5285;SDS011;2665;53.112;7.358;2023-10-09T00:40:45;4.03;;;1.80;;
5285;SDS011;2665;53.112;7.358;2023-10-09T00:43:15;2.60;;;1.40;;
5285;SDS011;2665;53.112;7.358;2023-10-09T00:45:44;3.90;;;1.77;;
5285;SDS011;2665;53.112;7.358;2023-10-09T00:48:11;4.40;;;1.70;;
5285;SDS011;2665;53.112;7.358;2023-10-09T00:50:46;2.87;;;1.37;;
5285;SDS011;2665;53.112;7.358;2023-10-09T00:53:17;2.87;;;1.30;;
5285;SDS011;2665;53.112;7.358;2023-10-09T00:55:44;4.63;;;2.03;;
5285;SDS011;2665;53.112;7.358;2023-10-09T00:58:16;5.73;;;2.20;;
5285;SDS011;2665;53.112;7.358;2023-10-09T01:00:48;3.07;;;1.50;;
5285;SDS011;2665;53.112;7.358;2023-10-09T01:03:18;10.00;;;3.50;;
5285;SDS011;2665;53.112;7.358;2023-10-09T01:08:20;4.00;;;1.70;;
5285;SDS011;2665;53.112;7.358;2023-10-09T01:10:56;4.10;;;2.10;;
5285;SDS011;2665;53.112;7.358;2023-10-09T01:13:23;2.40;;;1.20;;
5285;SDS011;2665;53.112;7.358;2023-10-09T01:16:10;4.53;;;2.07;;
5285;SDS011;2665;53.112;7.358;2023-10-09T01:18:45;2.97;;;1.83;;
5285;SDS011;2665;53.112;7.358;2023-10-09T01:21:14;4.00;;;1.67;;
5285;SDS011;2665;53.112;7.358;2023-10-09T01:23:40;5.50;;;1.63;;
5285;SDS011;2665;53.112;7.358;2023-10-09T01:26:27;3.10;;;1.67;;
5285;SDS011;2665;53.112;7.358;2023-10-09T01:28:55;2.60;;;1.50;;
5285;SDS011;2665;53.112;7.358;2023-10-09T01:31:23;4.53;;;2.20;;
5285;SDS011;2665;53.112;7.358;2023-10-09T01:33:51;3.03;;;1.50;;
5285;SDS011;2665;53.112;7.358;2023-10-09T01:36:19;5.17;;;2.00;;
5285;SDS011;2665;53.112;7.358;2023-10-09T01:38:58;6.03;;;1.70;;
5285;SDS011;2665;53.112;7.358;2023-10-09T01:41:24;2.90;;;1.10;;
5285;SDS011;2665;53.112;7.358;2023-10-09T01:43:50;3.60;;;1.40;;
5285;SDS011;2665;53.112;7.358;2023-10-09T01:46:20;4.90;;;1.87;;
5285;SDS011;2665;53.112;7.358;2023-10-09T01:48:47;8.20;;;1.90;;
5285;SDS011;2665;53.112;7.358;2023-10-09T01:51:14;7.30;;;2.00;;
5285;SDS011;2665;53.112;7.358;2023-10-09T01:53:46;5.90;;;2.10;;
5285;SDS011;2665;53.112;7.358;2023-10-09T01:56:19;5.57;;;2.23;;
5285;SDS011;2665;53.112;7.358;2023-10-09T01:58:45;4.53;;;2.00;;
5285;SDS011;2665;53.112;7.358;2023-10-09T02:01:15;3.53;;;1.93;;
5285;SDS011;2665;53.112;7.358;2023-10-09T02:03:41;3.43;;;1.80;;
5285;SDS011;2665;53.112;7.358;2023-10-09T02:06:09;11.00;;;2.10;;
5285;SDS011;2665;53.112;7.358;2023-10-09T02:08:54;4.40;;;2.17;;
5285;SDS011;2665;53.112;7.358;2023-10-09T02:11:21;7.50;;;2.77;;
5285;SDS011;2665;53.112;7.358;2023-10-09T02:14:06;10.20;;;3.20;;
5285;SDS011;2665;53.112;7.358;2023-10-09T02:16:48;7.73;;;2.90;;
5285;SDS011;2665;53.112;7.358;2023-10-09T02:19:52;6.90;;;3.47;;
5285;SDS011;2665;53.112;7.358;2023-10-09T02:22:18;7.63;;;4.00;;
5285;SDS011;2665;53.112;7.358;2023-10-09T02:24:45;5.30;;;3.10;;
5285;SDS011;2665;53.112;7.358;2023-10-09T02:27:14;8.50;;;2.70;;
5285;SDS011;2665;53.112;7.358;2023-10-09T02:30:02;10.17;;;3.83;;
5285;SDS011;2665;53.112;7.358;2023-10-09T02:32:36;7.23;;;3.60;;
5285;SDS011;2665;53.112;7.358;2023-10-09T02:35:04;7.40;;;3.70;;
5285;SDS011;2665;53.112;7.358;2023-10-09T02:37:45;10.60;;;3.47;;
5285;SDS011;2665;53.112;7.358;2023-10-09T02:40:11;9.60;;;4.47;;
5285;SDS011;2665;53.112;7.358;2023-10-09T02:42:47;7.97;;;4.90;;
5285;SDS011;2665;53.112;7.358;2023-10-09T02:45:14;16.77;;;5.70;;
5285;SDS011;2665;53.112;7.358;2023-10-09T02:47:43;15.00;;;6.63;;
5285;SDS011;2665;53.112;7.358;2023-10-09T02:50:13;12.20;;;5.47;;
5285;SDS011;2665;53.112;7.358;2023-10-09T02:52:46;16.13;;;5.63;;
5285;SDS011;2665;53.112;7.358;2023-10-09T02:55:15;17.80;;;6.43;;
5285;SDS011;2665;53.112;7.358;2023-10-09T02:57:54;19.93;;;7.47;;
5285;SDS011;2665;53.112;7.358;2023-10-09T03:00:36;13.67;;;6.17;;
5285;SDS011;2665;53.112;7.358;2023-10-09T03:03:03;20.83;;;7.10;;
5285;SDS011;2665;53.112;7.358;2023-10-09T03:05:32;17.93;;;7.03;;
5285;SDS011;2665;53.112;7.358;2023-10-09T03:07:58;16.87;;;7.00;;
5285;SDS011;2665;53.112;7.358;2023-10-09T03:10:25;13.00;;;6.30;;
5285;SDS011;2665;53.112;7.358;2023-10-09T03:12:51;14.70;;;6.43;;
5285;SDS011;2665;53.112;7.358;2023-10-09T03:15:21;10.53;;;5.47;;
5285;SDS011;2665;53.112;7.358;2023-10-09T03:17:47;17.53;;;6.70;;
5285;SDS011;2665;53.112;7.358;2023-10-09T03:20:14;20.63;;;7.57;;
5285;SDS011;2665;53.112;7.358;2023-10-09T03:22:42;16.90;;;7.23;;
5285;SDS011;2665;53.112;7.358;2023-10-09T03:25:10;15.20;;;6.80;;
5285;SDS011;2665;53.112;7.358;2023-10-09T03:27:42;18.00;;;7.20;;
5285;SDS011;2665;53.112;7.358;2023-10-09T03:30:14;16.30;;;7.40;;
5285;SDS011;2665;53.112;7.358;2023-10-09T03:32:51;20.90;;;8.70;;
5285;SDS011;2665;53.112;7.358;2023-10-09T03:35:20;17.90;;;7.43;;
5285;SDS011;2665;53.112;7.358;2023-10-09T03:37:57;18.07;;;9.10;;
5285;SDS011;2665;53.112;7.358;2023-10-09T03:40:46;15.13;;;8.23;;
5285;SDS011;2665;53.112;7.358;2023-10-09T03:43:13;16.50;;;7.47;;
5285;SDS011;2665;53.112;7.358;2023-10-09T03:45:39;12.97;;;7.40;;
5285;SDS011;2665;53.112;7.358;2023-10-09T03:48:32;18.37;;;7.77;;
5285;SDS011;2665;53.112;7.358;2023-10-09T03:51:01;17.73;;;9.30;;
5285;SDS011;2665;53.112;7.358;2023-10-09T03:53:53;14.67;;;7.40;;
5285;SDS011;2665;53.112;7.358;2023-10-09T03:56:19;15.77;;;8.27;;
5285;SDS011;2665;53.112;7.358;2023-10-09T03:58:49;13.57;;;7.07;;
5285;SDS011;2665;53.112;7.358;2023-10-09T04:01:16;16.47;;;7.10;;
5285;SDS011;2665;53.112;7.358;2023-10-09T04:04:02;17.57;;;8.33;;
5285;SDS011;2665;53.112;7.358;2023-10-09T04:06:29;21.87;;;8.80;;
5285;SDS011;2665;53.112;7.358;2023-10-09T04:09:04;22.60;;;8.53;;
5285;SDS011;2665;53.112;7.358;2023-10-09T04:11:49;19.43;;;8.17;;
5285;SDS011;2665;53.112;7.358;2023-10-09T04:14:22;18.20;;;8.40;;
5285;SDS011;2665;53.112;7.358;2023-10-09T04:16:57;15.10;;;8.47;;
5285;SDS011;2665;53.112;7.358;2023-10-09T04:19:49;19.37;;;8.27;;
5285;SDS011;2665;53.112;7.358;2023-10-09T04:22:38;15.27;;;8.30;;
5285;SDS011;2665;53.112;7.358;2023-10-09T04:25:14;19.17;;;9.47;;
5285;SDS011;2665;53.112;7.358;2023-10-09T04:27:50;21.97;;;9.03;;
5285;SDS011;2665;53.112;7.358;2023-10-09T04:30:18;25.50;;;10.20;;
5285;SDS011;2665;53.112;7.358;2023-10-09T04:32:44;24.40;;;8.97;;
5285;SDS011;2665;53.112;7.358;2023-10-09T04:35:10;17.93;;;9.27;;
5285;SDS011;2665;53.112;7.358;2023-10-09T04:37:51;21.73;;;9.60;;
5285;SDS011;2665;53.112;7.358;2023-10-09T04:40:25;11.93;;;7.33;;
5285;SDS011;2665;53.112;7.358;2023-10-09T04:43:20;24.80;;;9.80;;
5285;SDS011;2665;53.112;7.358;2023-10-09T04:45:47;18.60;;;9.77;;
5285;SDS011;2665;53.112;7.358;2023-10-09T04:48:34;23.27;;;10.90;;
5285;SDS011;2665;53.112;7.358;2023-10-09T04:51:06;20.67;;;9.20;;
5285;SDS011;2665;53.112;7.358;2023-10-09T04:53:59;21.07;;;9.60;;
5285;SDS011;2665;53.112;7.358;2023-10-09T04:56:46;31.03;;;13.17;;
5285;SDS011;2665;53.112;7.358;2023-10-09T04:59:21;25.00;;;10.40;;
5285;SDS011;2665;53.112;7.358;2023-10-09T05:01:53;19.27;;;9.20;;
5285;SDS011;2665;53.112;7.358;2023-10-09T05:04:29;24.70;;;9.87;;
5285;SDS011;2665;53.112;7.358;2023-10-09T05:07:06;16.70;;;10.37;;
5285;SDS011;2665;53.112;7.358;2023-10-09T05:10:10;23.50;;;9.07;;
5285;SDS011;2665;53.112;7.358;2023-10-09T05:12:41;25.90;;;11.60;;
5285;SDS011;2665;53.112;7.358;2023-10-09T05:15:22;20.43;;;11.10;;
5285;SDS011;2665;53.112;7.358;2023-10-09T05:17:52;25.37;;;11.63;;
5285;SDS011;2665;53.112;7.358;2023-10-09T05:20:22;26.53;;;11.13;;
5285;SDS011;2665;53.112;7.358;2023-10-09T05:22:51;28.33;;;13.40;;
5285;SDS011;2665;53.112;7.358;2023-10-09T05:25:28;22.07;;;11.30;;
5285;SDS011;2665;53.112;7.358;2023-10-09T05:28:17;27.67;;;12.43;;
5285;SDS011;2665;53.112;7.358;2023-10-09T05:31:14;24.20;;;12.60;;
5285;SDS011;2665;53.112;7.358;2023-10-09T05:34:00;28.37;;;12.53;;
5285;SDS011;2665;53.112;7.358;2023-10-09T05:36:26;23.40;;;11.70;;
5285;SDS011;2665;53.112;7.358;2023-10-09T05:38:52;21.43;;;10.50;;
5285;SDS011;2665;53.112;7.358;2023-10-09T05:41:43;31.67;;;12.03;;
5285;SDS011;2665;53.112;7.358;2023-10-09T05:44:17;28.20;;;12.80;;
5285;SDS011;2665;53.112;7.358;2023-10-09T05:47:02;30.20;;;13.80;;
5285;SDS011;2665;53.112;7.358;2023-10-09T05:49:48;33.63;;;12.57;;
5285;SDS011;2665;53.112;7.358;2023-10-09T05:52:41;24.73;;;11.63;;
5285;SDS011;2665;53.112;7.358;2023-10-09T05:55:07;24.20;;;13.53;;
5285;SDS011;2665;53.112;7.358;2023-10-09T05:57:52;37.60;;;15.00;;
5285;SDS011;2665;53.112;7.358;2023-10-09T06:00:37;29.60;;;13.33;;
5285;SDS011;2665;53.112;7.358;2023-10-09T06:03:21;34.20;;;12.70;;
5285;SDS011;2665;53.112;7.358;2023-10-09T06:05:51;31.63;;;14.23;;
5285;SDS011;2665;53.112;7.358;2023-10-09T06:08:21;33.20;;;13.67;;
5285;SDS011;2665;53.112;7.358;2023-10-09T06:11:09;25.07;;;13.00;;
5285;SDS011;2665;53.112;7.358;2023-10-09T06:13:54;24.10;;;12.77;;
5285;SDS011;2665;53.112;7.358;2023-10-09T06:16:30;28.50;;;14.47;;
5285;SDS011;2665;53.112;7.358;2023-10-09T06:19:15;27.10;;;12.03;;
5285;SDS011;2665;53.112;7.358;2023-10-09T06:21:44;27.27;;;12.37;;
5285;SDS011;2665;53.112;7.358;2023-10-09T06:24:29;29.23;;;12.87;;
5285;SDS011;2665;53.112;7.358;2023-10-09T06:27:06;33.30;;;13.00;;
5285;SDS011;2665;53.112;7.358;2023-10-09T06:29:32;32.87;;;13.90;;
5285;SDS011;2665;53.112;7.358;2023-10-09T06:32:02;32.93;;;11.97;;
5285;SDS011;2665;53.112;7.358;2023-10-09T06:37:10;20.23;;;10.83;;
5285;SDS011;2665;53.112;7.358;2023-10-09T06:39:49;28.27;;;11.00;;
5285;SDS011;2665;53.112;7.358;2023-10-09T06:42:35;19.00;;;9.80;;
5285;SDS011;2665;53.112;7.358;2023-10-09T06:45:04;19.93;;;10.13;;
5285;SDS011;2665;53.112;7.358;2023-10-09T06:47:40;25.90;;;10.60;;
5285;SDS011;2665;53.112;7.358;2023-10-09T06:50:08;24.53;;;10.00;;
5285;SDS011;2665;53.112;7.358;2023-10-09T06:52:49;28.27;;;11.10;;
5285;SDS011;2665;53.112;7.358;2023-10-09T06:55:37;24.43;;;11.07;;
5285;SDS011;2665;53.112;7.358;2023-10-09T06:58:30;29.53;;;11.70;;
5285;SDS011;2665;53.112;7.358;2023-10-09T07:01:07;28.33;;;11.17;;
5285;SDS011;2665;53.112;7.358;2023-10-09T07:03:56;19.83;;;9.33;;
5285;SDS011;2665;53.112;7.358;2023-10-09T07:06:35;29.20;;;10.60;;
5285;SDS011;2665;53.112;7.358;2023-10-09T07:09:02;17.10;;;8.67;;
5285;SDS011;2665;53.112;7.358;2023-10-09T07:11:34;25.07;;;9.77;;
5285;SDS011;2665;53.112;7.358;2023-10-09T07:16:35;15.70;;;8.20;;
5285;SDS011;2665;53.112;7.358;2023-10-09T07:19:05;16.50;;;9.13;;
5285;SDS011;2665;53.112;7.358;2023-10-09T07:21:57;19.43;;;7.70;;
5285;SDS011;2665;53.112;7.358;2023-10-09T07:24:28;14.50;;;8.33;;
5285;SDS011;2665;53.112;7.358;2023-10-09T07:27:08;17.57;;;9.37;;
5285;SDS011;2665;53.112;7.358;2023-10-09T07:29:37;21.00;;;9.80;;
5285;SDS011;2665;53.112;7.358;2023-10-09T07:32:18;18.17;;;8.20;;
5285;SDS011;2665;53.112;7.358;2023-10-09T07:34:48;13.73;;;6.80;;
5285;SDS011;2665;53.112;7.358;2023-10-09T07:37:25;14.20;;;7.87;;
5285;SDS011;2665;53.112;7.358;2023-10-09T07:39:56;14.67;;;8.30;;
5285;SDS011;2665;53.112;7.358;2023-10-09T07:42:25;15.47;;;8.90;;
5285;SDS011;2665;53.112;7.358;2023-10-09T07:45:06;12.07;;;7.20;;
5285;SDS011;2665;53.112;7.358;2023-10-09T07:47:56;19.13;;;7.10;;
5285;SDS011;2665;53.112;7.358;2023-10-09T07:50:25;11.87;;;6.20;;
5285;SDS011;2665;53.112;7.358;2023-10-09T07:53:05;16.03;;;6.87;;
5285;SDS011;2665;53.112;7.358;2023-10-09T07:55:43;20.50;;;8.00;;
5285;SDS011;2665;53.112;7.358;2023-10-09T07:58:19;13.10;;;7.60;;
5285;SDS011;2665;53.112;7.358;2023-10-09T08:00:50;12.93;;;6.10;;
5285;SDS011;2665;53.112;7.358;2023-10-09T08:03:22;13.83;;;6.23;;
5285;SDS011;2665;53.112;7.358;2023-10-09T08:05:57;14.50;;;5.90;;
5285;SDS011;2665;53.112;7.358;2023-10-09T08:08:44;17.63;;;7.50;;
5285;SDS011;2665;53.112;7.358;2023-10-09T08:11:30;12.57;;;5.77;;
5285;SDS011;2665;53.112;7.358;2023-10-09T08:14:09;12.40;;;6.07;;
5285;SDS011;2665;53.112;7.358;2023-10-09T08:16:47;17.00;;;7.60;;
5285;SDS011;2665;53.112;7.358;2023-10-09T08:19:14;22.83;;;7.30;;
5285;SDS011;2665;53.112;7.358;2023-10-09T08:21:59;8.90;;;5.80;;
5285;SDS011;2665;53.112;7.358;2023-10-09T08:24:44;15.73;;;6.13;;
5285;SDS011;2665;53.112;7.358;2023-10-09T08:27:20;12.17;;;6.20;;
5285;SDS011;2665;53.112;7.358;2023-10-09T08:29:59;16.80;;;6.73;;
5285;SDS011;2665;53.112;7.358;2023-10-09T08:32:44;10.17;;;6.57;;
5285;SDS011;2665;53.112;7.358;2023-10-09T08:35:26;15.83;;;7.00;;
5285;SDS011;2665;53.112;7.358;2023-10-09T08:37:58;11.77;;;6.63;;
5285;SDS011;2665;53.112;7.358;2023-10-09T08:40:34;10.07;;;6.00;;
5285;SDS011;2665;53.112;7.358;2023-10-09T08:43:13;10.50;;;5.43;;
5285;SDS011;2665;53.112;7.358;2023-10-09T08:45:44;9.67;;;5.57;;
5285;SDS011;2665;53.112;7.358;2023-10-09T08:48:11;13.67;;;6.17;;
5285;SDS011;2665;53.112;7.358;2023-10-09T08:50:40;10.67;;;5.40;;
5285;SDS011;2665;53.112;7.358;2023-10-09T08:53:10;17.57;;;6.30;;
5285;SDS011;2665;53.112;7.358;2023-10-09T08:55:36;8.70;;;4.87;;
5285;SDS011;2665;53.112;7.358;2023-10-09T08:58:06;13.03;;;6.10;;
5285;SDS011;2665;53.112;7.358;2023-10-09T09:00:43;13.73;;;5.30;;
5285;SDS011;2665;53.112;7.358;2023-10-09T09:03:11;9.17;;;5.87;;
5285;SDS011;2665;53.112;7.358;2023-10-09T09:05:37;10.47;;;5.80;;
5285;SDS011;2665;53.112;7.358;2023-10-09T09:08:03;11.93;;;5.60;;
5285;SDS011;2665;53.112;7.358;2023-10-09T09:10:29;13.10;;;5.80;;
5285;SDS011;2665;53.112;7.358;2023-10-09T09:13:04;12.77;;;5.10;;
5285;SDS011;2665;53.112;7.358;2023-10-09T09:15:31;10.60;;;4.87;;
5285;SDS011;2665;53.112;7.358;2023-10-09T09:18:04;8.00;;;5.77;;
5285;SDS011;2665;53.112;7.358;2023-10-09T09:20:42;10.40;;;4.27;;
5285;SDS011;2665;53.112;7.358;2023-10-09T09:23:11;9.30;;;5.77;;
5285;SDS011;2665;53.112;7.358;2023-10-09T09:25:42;14.30;;;4.80;;
5285;SDS011;2665;53.112;7.358;2023-10-09T09:28:12;9.17;;;4.40;;
5285;SDS011;2665;53.112;7.358;2023-10-09T09:30:47;9.77;;;5.00;;
5285;SDS011;2665;53.112;7.358;2023-10-09T09:33:17;7.87;;;4.20;;
5285;SDS011;2665;53.112;7.358;2023-10-09T09:36:03;10.20;;;4.23;;
5285;SDS011;2665;53.112;7.358;2023-10-09T09:38:30;15.90;;;6.00;;
5285;SDS011;2665;53.112;7.358;2023-10-09T09:41:16;10.60;;;3.70;;
5285;SDS011;2665;53.112;7.358;2023-10-09T09:43:58;14.90;;;5.70;;
5285;SDS011;2665;53.112;7.358;2023-10-09T09:46:31;14.60;;;4.80;;
5285;SDS011;2665;53.112;7.358;2023-10-09T09:49:01;7.67;;;4.40;;
5285;SDS011;2665;53.112;7.358;2023-10-09T09:51:31;12.03;;;4.33;;
5285;SDS011;2665;53.112;7.358;2023-10-09T09:53:58;11.43;;;4.83;;
5285;SDS011;2665;53.112;7.358;2023-10-09T09:56:24;9.53;;;4.70;;
5285;SDS011;2665;53.112;7.358;2023-10-09T09:58:51;6.37;;;4.40;;
5285;SDS011;2665;53.112;7.358;2023-10-09T10:01:22;11.20;;;4.33;;
5285;SDS011;2665;53.112;7.358;2023-10-09T10:03:51;16.47;;;5.00;;
5285;SDS011;2665;53.112;7.358;2023-10-09T10:06:21;8.30;;;4.00;;
5285;SDS011;2665;53.112;7.358;2023-10-09T10:08:51;10.43;;;4.93;;
5285;SDS011;2665;53.112;7.358;2023-10-09T10:14:29;9.40;;;4.30;;
5285;SDS011;2665;53.112;7.358;2023-10-09T10:17:15;9.33;;;3.90;;
5285;SDS011;2665;53.112;7.358;2023-10-09T10:22:30;7.70;;;3.97;;
5285;SDS011;2665;53.112;7.358;2023-10-09T10:24:58;8.53;;;4.93;;
5285;SDS011;2665;53.112;7.358;2023-10-09T10:27:28;8.63;;;4.10;;
5285;SDS011;2665;53.112;7.358;2023-10-09T10:30:26;8.33;;;3.80;;
5285;SDS011;2665;53.112;7.358;2023-10-09T10:32:59;5.40;;;3.43;;
5285;SDS011;2665;53.112;7.358;2023-10-09T10:35:34;6.53;;;3.80;;
5285;SDS011;2665;53.112;7.358;2023-10-09T10:38:30;5.30;;;3.50;;
5285;SDS011;2665;53.112;7.358;2023-10-09T10:43:45;8.10;;;3.53;;
5285;SDS011;2665;53.112;7.358;2023-10-09T10:46:17;5.67;;;3.63;;
5285;SDS011;2665;53.112;7.358;2023-10-09T10:48:59;6.70;;;3.50;;
5285;SDS011;2665;53.112;7.358;2023-10-09T10:51:26;7.53;;;3.53;;
5285;SDS011;2665;53.112;7.358;2023-10-09T10:54:05;7.63;;;3.03;;
5285;SDS011;2665;53.112;7.358;2023-10-09T10:56:50;9.10;;;3.43;;
5285;SDS011;2665;53.112;7.358;2023-10-09T10:59:17;6.50;;;3.10;;
5285;SDS011;2665;53.112;7.358;2023-10-09T11:01:50;4.73;;;3.00;;
5285;SDS011;2665;53.112;7.358;2023-10-09T11:04:27;8.47;;;3.30;;
5285;SDS011;2665;53.112;7.358;2023-10-09T11:07:04;5.00;;;2.47;;
5285;SDS011;2665;53.112;7.358;2023-10-09T11:09:56;6.57;;;2.93;;
5285;SDS011;2665;53.112;7.358;2023-10-09T11:15:29;6.40;;;2.53;;
5285;SDS011;2665;53.112;7.358;2023-10-09T11:20:44;4.83;;;2.63;;
5285;SDS011;2665;53.112;7.358;2023-10-09T11:23:29;5.33;;;2.93;;
5285;SDS011;2665;53.112;7.358;2023-10-09T11:25:58;4.93;;;3.07;;
5285;SDS011;2665;53.112;7.358;2023-10-09T11:28:43;4.57;;;2.63;;
5285;SDS011;2665;53.112;7.358;2023-10-09T11:31:22;5.97;;;2.30;;
5285;SDS011;2665;53.112;7.358;2023-10-09T11:33:49;4.30;;;2.70;;
5285;SDS011;2665;53.112;7.358;2023-10-09T11:36:19;4.83;;;2.10;;
5285;SDS011;2665;53.112;7.358;2023-10-09T11:38:59;5.07;;;2.73;;
5285;SDS011;2665;53.112;7.358;2023-10-09T11:41:39;8.80;;;2.20;;
5285;SDS011;2665;53.112;7.358;2023-10-09T11:44:09;4.80;;;1.90;;
5285;SDS011;2665;53.112;7.358;2023-10-09T11:46:58;5.03;;;2.50;;
5285;SDS011;2665;53.112;7.358;2023-10-09T11:49:57;4.83;;;1.77;;
5285;SDS011;2665;53.112;7.358;2023-10-09T11:52:26;3.50;;;1.50;;
5285;SDS011;2665;53.112;7.358;2023-10-09T11:55:00;4.67;;;2.17;;
5285;SDS011;2665;53.112;7.358;2023-10-09T11:57:28;5.00;;;1.67;;
5285;SDS011;2665;53.112;7.358;2023-10-09T11:59:58;3.90;;;1.97;;
5285;SDS011;2665;53.112;7.358;2023-10-09T12:02:25;3.70;;;1.47;;
5285;SDS011;2665;53.112;7.358;2023-10-09T12:04:51;4.60;;;1.30;;
5285;SDS011;2665;53.112;7.358;2023-10-09T12:07:20;6.40;;;1.93;;
5285;SDS011;2665;53.112;7.358;2023-10-09T12:09:47;2.80;;;1.67;;
5285;SDS011;2665;53.112;7.358;2023-10-09T12:12:13;4.80;;;1.73;;
5285;SDS011;2665;53.112;7.358;2023-10-09T12:14:39;2.70;;;1.50;;
5285;SDS011;2665;53.112;7.358;2023-10-09T12:17:06;2.90;;;1.50;;
5285;SDS011;2665;53.112;7.358;2023-10-09T12:19:33;3.80;;;1.60;;
5285;SDS011;2665;53.112;7.358;2023-10-09T12:22:03;4.23;;;1.83;;
5285;SDS011;2665;53.112;7.358;2023-10-09T12:24:30;3.13;;;1.70;;
5285;SDS011;2665;53.112;7.358;2023-10-09T12:26:56;3.77;;;1.40;;
5285;SDS011;2665;53.112;7.358;2023-10-09T12:29:22;3.10;;;1.70;;
5285;SDS011;2665;53.112;7.358;2023-10-09T12:31:49;3.60;;;1.30;;
5285;SDS011;2665;53.112;7.358;2023-10-09T12:34:23;3.83;;;2.13;;
5285;SDS011;2665;53.112;7.358;2023-10-09T12:36:52;4.77;;;1.50;;
5285;SDS011;2665;53.112;7.358;2023-10-09T12:39:18;3.07;;;1.60;;
5285;SDS011;2665;53.112;7.358;2023-10-09T12:41:44;4.30;;;1.40;;
5285;SDS011;2665;53.112;7.358;2023-10-09T12:44:10;2.60;;;1.17;;
5285;SDS011;2665;53.112;7.358;2023-10-09T12:46:40;2.40;;;1.33;;
5285;SDS011;2665;53.112;7.358;2023-10-09T12:49:06;3.20;;;1.20;;
5285;SDS011;2665;53.112;7.358;2023-10-09T12:51:33;3.40;;;2.03;;
5285;SDS011;2665;53.112;7.358;2023-10-09T12:53:59;3.60;;;1.30;;
5285;SDS011;2665;53.112;7.358;2023-10-09T12:56:26;3.70;;;1.63;;
5285;SDS011;2665;53.112;7.358;2023-10-09T12:59:00;6.27;;;1.63;;
5285;SDS011;2665;53.112;7.358;2023-10-09T13:01:29;2.97;;;1.60;;
5285;SDS011;2665;53.112;7.358;2023-10-09T13:04:00;5.57;;;1.53;;
5285;SDS011;2665;53.112;7.358;2023-10-09T13:06:27;4.70;;;1.57;;
5285;SDS011;2665;53.112;7.358;2023-10-09T13:08:53;3.50;;;1.67;;
5285;SDS011;2665;53.112;7.358;2023-10-09T13:11:24;6.40;;;1.90;;
5285;SDS011;2665;53.112;7.358;2023-10-09T13:13:51;3.33;;;1.33;;
5285;SDS011;2665;53.112;7.358;2023-10-09T13:16:17;2.77;;;1.50;;
5285;SDS011;2665;53.112;7.358;2023-10-09T13:18:51;5.63;;;1.43;;
5285;SDS011;2665;53.112;7.358;2023-10-09T13:21:21;11.57;;;2.37;;
5285;SDS011;2665;53.112;7.358;2023-10-09T13:23:49;2.87;;;1.50;;
5285;SDS011;2665;53.112;7.358;2023-10-09T13:26:19;5.00;;;1.80;;
5285;SDS011;2665;53.112;7.358;2023-10-09T13:29:01;3.90;;;1.73;;
5285;SDS011;2665;53.112;7.358;2023-10-09T13:31:27;7.07;;;2.03;;
5285;SDS011;2665;53.112;7.358;2023-10-09T13:33:57;5.17;;;1.90;;
5285;SDS011;2665;53.112;7.358;2023-10-09T13:36:27;5.20;;;1.70;;
5285;SDS011;2665;53.112;7.358;2023-10-09T13:39:03;4.20;;;1.57;;
5285;SDS011;2665;53.112;7.358;2023-10-09T13:41:48;4.53;;;1.47;;
5285;SDS011;2665;53.112;7.358;2023-10-09T13:44:14;5.67;;;1.93;;
5285;SDS011;2665;53.112;7.358;2023-10-09T13:46:41;7.40;;;1.30;;
5285;SDS011;2665;53.112;7.358;2023-10-09T13:49:07;2.60;;;1.50;;
5285;SDS011;2665;53.112;7.358;2023-10-09T13:51:43;5.00;;;2.03;;
5285;SDS011;2665;53.112;7.358;2023-10-09T13:54:16;6.03;;;1.60;;
5285;SDS011;2665;53.112;7.358;2023-10-09T13:57:08;6.40;;;1.97;;
5285;SDS011;2665;53.112;7.358;2023-10-09T13:59:36;5.70;;;1.93;;
5285;SDS011;2665;53.112;7.358;2023-10-09T14:02:07;5.00;;;1.93;;
5285;SDS011;2665;53.112;7.358;2023-10-09T14:04:42;4.20;;;2.00;;
5285;SDS011;2665;53.112;7.358;2023-10-09T14:07:08;8.90;;;1.80;;
5285;SDS011;2665;53.112;7.358;2023-10-09T14:09:34;3.70;;;1.67;;
5285;SDS011;2665;53.112;7.358;2023-10-09T14:12:05;4.57;;;1.83;;
5285;SDS011;2665;53.112;7.358;2023-10-09T14:14:39;4.00;;;1.83;;
5285;SDS011;2665;53.112;7.358;2023-10-09T14:17:18;3.50;;;1.50;;
5285;SDS011;2665;53.112;7.358;2023-10-09T14:19:48;5.80;;;1.40;;
5285;SDS011;2665;53.112;7.358;2023-10-09T14:22:15;6.67;;;1.60;;
5285;SDS011;2665;53.112;7.358;2023-10-09T14:24:45;4.73;;;1.70;;
5285;SDS011;2665;53.112;7.358;2023-10-09T14:27:12;2.73;;;1.60;;
5285;SDS011;2665;53.112;7.358;2023-10-09T14:29:43;3.87;;;1.20;;
5285;SDS011;2665;53.112;7.358;2023-10-09T14:32:10;10.33;;;1.50;;
5285;SDS011;2665;53.112;7.358;2023-10-09T14:34:38;4.57;;;1.97;;
5285;SDS011;2665;53.112;7.358;2023-10-09T14:37:08;7.47;;;2.10;;
5285;SDS011;2665;53.112;7.358;2023-10-09T14:39:37;4.70;;;1.57;;
5285;SDS011;2665;53.112;7.358;2023-10-09T14:42:04;10.57;;;2.00;;
5285;SDS011;2665;53.112;7.358;2023-10-09T14:44:36;3.90;;;1.40;;
5285;SDS011;2665;53.112;7.358;2023-10-09T14:47:03;8.97;;;1.87;;
5285;SDS011;2665;53.112;7.358;2023-10-09T14:49:33;6.00;;;1.73;;
5285;SDS011;2665;53.112;7.358;2023-10-09T14:52:08;5.30;;;1.70;;
5285;SDS011;2665;53.112;7.358;2023-10-09T14:54:35;4.73;;;1.73;;
5285;SDS011;2665;53.112;7.358;2023-10-09T14:57:01;6.57;;;2.07;;
5285;SDS011;2665;53.112;7.358;2023-10-09T14:59:31;4.87;;;2.13;;
5285;SDS011;2665;53.112;7.358;2023-10-09T15:01:58;5.73;;;1.97;;
5285;SDS011;2665;53.112;7.358;2023-10-09T15:04:24;3.30;;;1.37;;
5285;SDS011;2665;53.112;7.358;2023-10-09T15:06:53;9.07;;;1.87;;
5285;SDS011;2665;53.112;7.358;2023-10-09T15:09:19;4.47;;;2.00;;
5285;SDS011;2665;53.112;7.358;2023-10-09T15:11:49;7.73;;;1.60;;
5285;SDS011;2665;53.112;7.358;2023-10-09T15:14:17;5.23;;;1.43;;
5285;SDS011;2665;53.112;7.358;2023-10-09T15:16:46;4.70;;;1.27;;
5285;SDS011;2665;53.112;7.358;2023-10-09T15:19:12;4.40;;;1.50;;
5285;SDS011;2665;53.112;7.358;2023-10-09T15:21:38;4.60;;;1.50;;
5285;SDS011;2665;53.112;7.358;2023-10-09T15:24:14;5.13;;;1.10;;
5285;SDS011;2665;53.112;7.358;2023-10-09T15:26:43;4.07;;;1.33;;
5285;SDS011;2665;53.112;7.358;2023-10-09T15:29:09;4.20;;;1.23;;
5285;SDS011;2665;53.112;7.358;2023-10-09T15:31:35;2.87;;;0.97;;
5285;SDS011;2665;53.112;7.358;2023-10-09T15:34:02;6.43;;;1.23;;
5285;SDS011;2665;53.112;7.358;2023-10-09T15:36:33;5.10;;;1.00;;
5285;SDS011;2665;53.112;7.358;2023-10-09T15:38:59;5.80;;;1.33;;
5285;SDS011;2665;53.112;7.358;2023-10-09T15:41:28;5.50;;;2.00;;
5285;SDS011;2665;53.112;7.358;2023-10-09T15:43:58;4.50;;;1.40;;
5285;SDS011;2665;53.112;7.358;2023-10-09T15:46:26;4.10;;;1.33;;
5285;SDS011;2665;53.112;7.358;2023-10-09T15:48:52;7.93;;;1.60;;
5285;SDS011;2665;53.112;7.358;2023-10-09T15:51:20;3.33;;;1.40;;
5285;SDS011;2665;53.112;7.358;2023-10-09T15:53:47;3.10;;;1.10;;
5285;SDS011;2665;53.112;7.358;2023-10-09T15:56:13;5.70;;;1.90;;
5285;SDS011;2665;53.112;7.358;2023-10-09T15:58:43;8.80;;;1.40;;
5285;SDS011;2665;53.112;7.358;2023-10-09T16:01:16;2.97;;;1.00;;
5285;SDS011;2665;53.112;7.358;2023-10-09T16:03:43;5.73;;;1.20;;
5285;SDS011;2665;53.112;7.358;2023-10-09T16:06:12;5.30;;;1.10;;